createdAt,value
2023-04-26T00:00:32.929Z,27.04
2023-04-26T00:01:32.916Z,27.04
2023-04-26T00:02:33.140Z,27.05
2023-04-26T00:03:33.290Z,27.05
2023-04-26T00:04:33.030Z,27.07
2023-04-26T00:05:33.065Z,27.05
2023-04-26T00:06:32.942Z,27.07
2023-04-26T00:07:32.977Z,27.11
2023-04-26T00:08:33.495Z,27.05
2023-04-26T00:09:32.978Z,27.02
2023-04-26T00:10:32.986Z,27.08
2023-04-26T00:11:32.986Z,27.07
2023-04-26T00:12:33.012Z,27.04
2023-04-26T00:13:33.458Z,27.08
2023-04-26T00:14:33.012Z,27.05
2023-04-26T00:15:33.073Z,27.09
2023-04-26T00:16:33.153Z,27.09
2023-04-26T00:17:33.209Z,27.12
2023-04-26T00:18:33.159Z,27.11
2023-04-26T00:19:33.214Z,27.07
2023-04-26T00:20:33.194Z,27.05
2023-04-26T00:21:33.209Z,27.09
2023-04-26T00:22:33.191Z,27.08
2023-04-26T00:23:33.368Z,27.04
2023-04-26T00:24:33.955Z,27.12
2023-04-26T00:25:33.234Z,27.06
2023-04-26T00:26:33.244Z,27.06
2023-04-26T00:27:33.260Z,27.10
2023-04-26T00:28:33.446Z,27.15
2023-04-26T00:29:33.258Z,27.12
2023-04-26T00:30:33.267Z,27.08
2023-04-26T00:31:33.311Z,27.12
2023-04-26T00:32:33.282Z,27.13
2023-04-26T00:33:33.247Z,27.10
2023-04-26T00:34:33.272Z,27.15
2023-04-26T00:35:33.262Z,27.12
2023-04-26T00:36:33.268Z,27.09
2023-04-26T00:37:33.237Z,27.10
2023-04-26T00:38:33.288Z,27.15
2023-04-26T00:39:33.949Z,27.15
2023-04-26T00:40:33.223Z,27.10
2023-04-26T00:41:33.256Z,27.16
2023-04-26T00:42:33.239Z,27.13
2023-04-26T00:43:33.252Z,27.13
2023-04-26T00:44:33.225Z,27.15
2023-04-26T00:45:33.319Z,27.17
2023-04-26T00:46:33.229Z,27.12
2023-04-26T00:47:33.250Z,27.13
2023-04-26T00:48:33.249Z,27.12
2023-04-26T00:49:33.253Z,27.15
2023-04-26T00:50:33.271Z,27.15
2023-04-26T00:51:33.975Z,27.13
2023-04-26T00:52:33.228Z,27.13
2023-04-26T00:53:33.254Z,27.16
2023-04-26T00:54:33.225Z,27.16
2023-04-26T00:55:33.321Z,27.15
2023-04-26T00:56:33.221Z,27.15
2023-04-26T00:57:33.213Z,27.15
2023-04-26T00:58:33.217Z,27.13
2023-04-26T00:59:33.231Z,27.17
2023-04-26T01:00:33.231Z,27.15
2023-04-26T01:01:33.268Z,27.17
2023-04-26T01:02:33.407Z,27.17
2023-04-26T01:03:33.388Z,27.17
2023-04-26T01:04:33.301Z,27.17
2023-04-26T01:05:33.267Z,27.20
2023-04-26T01:06:33.196Z,27.20
2023-04-26T01:07:33.206Z,27.20
2023-04-26T01:08:33.238Z,27.17
2023-04-26T01:09:33.242Z,27.18
2023-04-26T01:10:33.220Z,27.13
2023-04-26T01:11:33.230Z,27.18
2023-04-26T01:12:33.240Z,27.20
2023-04-26T01:13:33.336Z,27.21
2023-04-26T01:14:33.280Z,27.21
2023-04-26T01:15:33.277Z,27.17
2023-04-26T01:16:33.317Z,27.24
2023-04-26T01:17:33.306Z,27.18
2023-04-26T01:18:33.456Z,27.25
2023-04-26T01:19:33.297Z,27.26
2023-04-26T01:20:33.298Z,27.18
2023-04-26T01:21:33.326Z,27.21
2023-04-26T01:22:33.309Z,27.22
2023-04-26T01:23:33.352Z,27.20
2023-04-26T01:24:33.328Z,27.21
2023-04-26T01:25:33.294Z,27.27
2023-04-26T01:26:33.278Z,27.25
2023-04-26T01:27:33.315Z,27.22
2023-04-26T01:28:33.317Z,27.26
2023-04-26T01:29:33.365Z,27.27
2023-04-26T01:30:33.359Z,27.22
2023-04-26T01:31:33.453Z,27.25
2023-04-26T01:32:33.365Z,27.28
2023-04-26T01:33:33.470Z,27.24
2023-04-26T01:34:33.368Z,27.25
2023-04-26T01:35:33.378Z,27.24
2023-04-26T01:36:33.378Z,27.23
2023-04-26T01:37:33.345Z,27.20
2023-04-26T01:38:33.394Z,27.32
2023-04-26T01:39:33.502Z,27.27
2023-04-26T01:40:33.400Z,27.23
2023-04-26T01:41:33.563Z,27.31
2023-04-26T01:42:33.412Z,27.32
2023-04-26T01:43:33.453Z,27.25
2023-04-26T01:44:33.465Z,27.31
2023-04-26T01:45:33.499Z,27.28
2023-04-26T01:46:33.500Z,27.32
2023-04-26T01:47:33.471Z,27.32
2023-04-26T01:48:33.497Z,27.35
2023-04-26T01:49:34.020Z,27.32
2023-04-26T01:50:33.485Z,27.29
2023-04-26T01:51:33.526Z,27.33
2023-04-26T01:52:33.485Z,27.23
2023-04-26T01:53:33.493Z,27.32
2023-04-26T01:54:33.496Z,27.36
2023-04-26T01:55:33.552Z,27.33
2023-04-26T01:56:33.565Z,27.31
2023-04-26T01:57:33.530Z,27.32
2023-04-26T01:58:33.526Z,27.33
2023-04-26T01:59:34.558Z,27.36
2023-04-26T02:00:33.584Z,27.29
2023-04-26T02:01:33.628Z,27.31
2023-04-26T02:02:33.631Z,27.32
2023-04-26T02:03:33.650Z,27.34
2023-04-26T02:04:33.629Z,27.30
2023-04-26T02:05:33.615Z,27.36
2023-04-26T02:06:33.607Z,27.32
2023-04-26T02:07:33.637Z,27.33
2023-04-26T02:08:33.719Z,27.32
2023-04-26T02:09:33.630Z,27.34
2023-04-26T02:10:33.650Z,27.33
2023-04-26T02:11:33.664Z,27.32
2023-04-26T02:12:33.671Z,27.36
2023-04-26T02:13:33.633Z,27.37
2023-04-26T02:14:33.675Z,27.34
2023-04-26T02:15:33.644Z,27.36
2023-04-26T02:16:33.671Z,27.33
2023-04-26T02:17:33.697Z,27.38
2023-04-26T02:18:33.646Z,27.34
2023-04-26T02:19:33.669Z,27.37
2023-04-26T02:20:33.692Z,27.37
2023-04-26T02:21:33.776Z,27.37
2023-04-26T02:22:33.701Z,27.36
2023-04-26T02:23:33.697Z,27.33
2023-04-26T02:24:33.750Z,27.36
2023-04-26T02:25:33.722Z,27.37
2023-04-26T02:26:33.696Z,27.40
2023-04-26T02:27:33.743Z,27.38
2023-04-26T02:28:33.735Z,27.40
2023-04-26T02:29:43.182Z,27.37
2023-04-26T02:30:34.714Z,27.38
2023-04-26T02:31:33.796Z,27.41
2023-04-26T02:32:33.828Z,27.33
2023-04-26T02:33:33.737Z,27.38
2023-04-26T02:34:33.700Z,27.37
2023-04-26T02:35:33.684Z,27.37
2023-04-26T02:36:33.723Z,27.36
2023-04-26T02:37:33.699Z,27.38
2023-04-26T02:38:33.691Z,27.38
2023-04-26T02:39:33.975Z,27.37
2023-04-26T02:40:33.650Z,27.40
2023-04-26T02:41:34.493Z,27.38
2023-04-26T02:42:33.638Z,27.37
2023-04-26T02:43:33.620Z,27.36
2023-04-26T02:44:33.650Z,27.37
2023-04-26T02:45:33.632Z,27.38
2023-04-26T02:46:33.672Z,27.41
2023-04-26T02:47:33.734Z,27.45
2023-04-26T02:48:34.502Z,27.45
2023-04-26T02:49:33.614Z,27.42
2023-04-26T02:50:33.594Z,27.40
2023-04-26T02:51:33.661Z,27.41
2023-04-26T02:52:33.651Z,27.46
2023-04-26T02:53:33.663Z,27.45
2023-04-26T02:54:33.636Z,27.39
2023-04-26T02:55:33.689Z,27.38
2023-04-26T02:56:33.665Z,27.42
2023-04-26T02:57:33.761Z,27.41
2023-04-26T02:58:33.671Z,27.44
2023-04-26T02:59:33.742Z,27.42
2023-04-26T03:00:33.814Z,27.42
2023-04-26T03:01:33.773Z,27.37
2023-04-26T03:02:33.806Z,27.41
2023-04-26T03:03:34.044Z,27.43
2023-04-26T03:04:34.034Z,27.44
2023-04-26T03:05:33.711Z,27.45
2023-04-26T03:06:33.688Z,27.45
2023-04-26T03:07:33.715Z,27.48
2023-04-26T03:08:33.707Z,27.49
2023-04-26T03:09:33.717Z,27.49
2023-04-26T03:10:33.715Z,27.42
2023-04-26T03:11:33.727Z,27.46
2023-04-26T03:12:33.778Z,27.46
2023-04-26T03:13:33.759Z,27.39
2023-04-26T03:14:33.775Z,27.49
2023-04-26T03:15:33.764Z,27.48
2023-04-26T03:16:33.809Z,27.49
2023-04-26T03:17:33.742Z,27.48
2023-04-26T03:18:33.806Z,27.49
2023-04-26T03:19:33.880Z,27.48
2023-04-26T03:20:33.762Z,27.46
2023-04-26T03:21:33.763Z,27.48
2023-04-26T03:22:33.781Z,27.43
2023-04-26T03:23:33.741Z,27.46
2023-04-26T03:24:33.786Z,27.48
2023-04-26T03:25:33.810Z,27.48
2023-04-26T03:26:33.839Z,27.50
2023-04-26T03:27:33.814Z,27.45
2023-04-26T03:28:33.819Z,27.46
2023-04-26T03:29:33.817Z,27.39
2023-04-26T03:30:33.841Z,27.50
2023-04-26T03:31:33.804Z,27.46
2023-04-26T03:32:33.847Z,27.46
2023-04-26T03:33:33.837Z,27.46
2023-04-26T03:34:33.871Z,27.45
2023-04-26T03:35:33.847Z,27.47
2023-04-26T03:36:33.918Z,27.54
2023-04-26T03:37:33.838Z,27.49
2023-04-26T03:38:33.830Z,27.49
2023-04-26T03:39:34.046Z,27.49
2023-04-26T03:40:33.885Z,27.49
2023-04-26T03:41:33.841Z,27.49
2023-04-26T03:42:33.846Z,27.49
2023-04-26T03:43:33.925Z,27.50
2023-04-26T03:44:33.952Z,27.50
2023-04-26T03:45:33.974Z,27.50
2023-04-26T03:46:33.952Z,27.49
2023-04-26T03:47:33.969Z,27.46
2023-04-26T03:48:33.939Z,27.52
2023-04-26T03:49:33.965Z,27.47
2023-04-26T03:50:33.958Z,27.51
2023-04-26T03:51:33.951Z,27.49
2023-04-26T03:52:33.982Z,27.46
2023-04-26T03:53:33.980Z,27.52
2023-04-26T03:54:34.003Z,27.51
2023-04-26T03:55:33.994Z,27.54
2023-04-26T03:56:33.985Z,27.51
2023-04-26T03:57:33.966Z,27.56
2023-04-26T03:58:34.018Z,27.51
2023-04-26T03:59:34.016Z,27.50
2023-04-26T04:00:33.983Z,27.51
2023-04-26T04:01:34.026Z,27.49
2023-04-26T04:02:34.121Z,27.53
2023-04-26T04:03:34.186Z,27.54
2023-04-26T04:04:34.107Z,27.51
2023-04-26T04:05:34.024Z,27.50
2023-04-26T04:06:34.031Z,27.56
2023-04-26T04:07:34.050Z,27.57
2023-04-26T04:08:34.046Z,27.51
2023-04-26T04:09:34.050Z,27.51
2023-04-26T04:10:34.060Z,27.58
2023-04-26T04:11:34.060Z,27.55
2023-04-26T04:12:34.056Z,27.51
2023-04-26T04:13:34.066Z,27.51
2023-04-26T04:14:34.524Z,27.56
2023-04-26T04:15:34.114Z,27.50
2023-04-26T04:16:34.047Z,27.54
2023-04-26T04:17:35.060Z,27.55
2023-04-26T04:18:34.093Z,27.61
2023-04-26T04:19:34.517Z,27.55
2023-04-26T04:20:34.123Z,27.54
2023-04-26T04:21:34.095Z,27.58
2023-04-26T04:22:34.123Z,27.55
2023-04-26T04:23:34.129Z,27.61
2023-04-26T04:24:34.609Z,27.55
2023-04-26T04:25:34.098Z,27.60
2023-04-26T04:26:34.134Z,27.50
2023-04-26T04:27:34.113Z,27.60
2023-04-26T04:28:34.117Z,27.51
2023-04-26T04:29:34.542Z,27.57
2023-04-26T04:30:34.080Z,27.54
2023-04-26T04:31:34.187Z,27.57
2023-04-26T04:32:34.209Z,27.57
2023-04-26T04:33:34.171Z,27.58
2023-04-26T04:34:34.158Z,27.54
2023-04-26T04:35:34.353Z,27.55
2023-04-26T04:36:34.113Z,27.55
2023-04-26T04:37:34.189Z,27.55
2023-04-26T04:38:34.139Z,27.54
2023-04-26T04:39:34.272Z,27.58
2023-04-26T04:40:34.198Z,27.53
2023-04-26T04:41:34.171Z,27.53
2023-04-26T04:42:34.147Z,27.55
2023-04-26T04:43:34.166Z,27.58
2023-04-26T04:44:34.192Z,27.53
2023-04-26T04:45:34.192Z,27.53
2023-04-26T04:46:34.218Z,27.57
2023-04-26T04:47:34.291Z,27.48
2023-04-26T04:48:34.220Z,27.53
2023-04-26T04:49:34.215Z,27.54
2023-04-26T04:50:34.169Z,27.54
2023-04-26T04:51:34.184Z,27.60
2023-04-26T04:52:34.214Z,27.55
2023-04-26T04:53:34.214Z,27.48
2023-04-26T04:54:34.244Z,27.47
2023-04-26T04:55:34.230Z,27.41
2023-04-26T04:56:34.235Z,27.43
2023-04-26T04:57:34.271Z,27.40
2023-04-26T04:58:34.280Z,27.36
2023-04-26T04:59:34.384Z,27.32
2023-04-26T05:00:34.437Z,27.34
2023-04-26T05:01:34.490Z,27.31
2023-04-26T05:02:34.571Z,27.34
2023-04-26T05:03:34.649Z,27.39
2023-04-26T05:04:34.938Z,27.38
2023-04-26T05:05:34.672Z,27.36
2023-04-26T05:06:34.716Z,27.31
2023-04-26T05:07:34.794Z,27.35
2023-04-26T05:08:34.796Z,27.35
2023-04-26T05:09:34.822Z,27.33
2023-04-26T05:10:34.849Z,27.26
2023-04-26T05:11:34.982Z,27.21
2023-04-26T05:12:34.872Z,27.20
2023-04-26T05:13:34.942Z,27.21
2023-04-26T05:14:34.953Z,27.18
2023-04-26T05:15:35.012Z,27.18
2023-04-26T05:16:35.175Z,27.14
2023-04-26T05:17:35.166Z,27.14
2023-04-26T05:18:35.191Z,27.07
2023-04-26T05:19:35.204Z,27.02
2023-04-26T05:20:35.305Z,27.09
2023-04-26T05:21:35.306Z,27.11
2023-04-26T05:22:35.337Z,27.10
2023-04-26T05:23:35.414Z,27.15
2023-04-26T05:24:35.543Z,27.38
2023-04-26T05:25:35.541Z,27.38
2023-04-26T05:26:35.649Z,29.68
2023-04-26T05:27:35.657Z,30.78
2023-04-26T05:28:35.682Z,30.66
2023-04-26T05:29:36.085Z,29.97
2023-04-26T05:30:35.810Z,29.83
2023-04-26T05:31:35.902Z,30.62
2023-04-26T05:32:36.028Z,30.58
2023-04-26T05:33:35.956Z,31.37
2023-04-26T05:34:35.972Z,33.12
2023-04-26T05:35:36.058Z,31.57
2023-04-26T05:36:36.126Z,32.04
2023-04-26T05:37:36.132Z,35.22
2023-04-26T05:38:36.222Z,34.54
2023-04-26T05:39:36.245Z,34.82
2023-04-26T05:40:36.325Z,34.15
2023-04-26T05:41:36.428Z,34.95
2023-04-26T05:42:36.411Z,34.58
2023-04-26T05:43:36.451Z,34.14
2023-04-26T05:44:36.544Z,33.99
2023-04-26T05:45:37.107Z,33.64
2023-04-26T05:46:36.646Z,33.45
2023-04-26T05:47:36.706Z,33.74
2023-04-26T05:48:36.745Z,33.95
2023-04-26T05:49:36.832Z,33.73
2023-04-26T05:50:38.825Z,33.76
2023-04-26T05:51:36.873Z,33.99
2023-04-26T05:52:36.843Z,34.10
2023-04-26T05:53:36.853Z,34.12
2023-04-26T05:54:37.562Z,34.85
2023-04-26T05:55:36.871Z,35.41
2023-04-26T05:56:36.866Z,34.92
2023-04-26T05:57:36.807Z,35.08
2023-04-26T05:58:36.762Z,35.86
2023-04-26T05:59:36.777Z,34.65
2023-04-26T06:00:36.762Z,35.22
2023-04-26T06:01:36.795Z,34.87
2023-04-26T06:02:36.829Z,35.02
2023-04-26T06:03:36.946Z,34.99
2023-04-26T06:04:36.904Z,34.93
2023-04-26T06:05:37.095Z,35.03
2023-04-26T06:06:36.731Z,35.06
2023-04-26T06:07:36.712Z,34.97
2023-04-26T06:08:36.698Z,34.92
2023-04-26T06:09:36.748Z,34.96
2023-04-26T06:10:37.075Z,34.75
2023-04-26T06:11:36.687Z,34.71
2023-04-26T06:12:36.704Z,34.56
2023-04-26T06:13:36.674Z,34.66
2023-04-26T06:14:36.697Z,34.49
2023-04-26T06:15:36.695Z,34.43
2023-04-26T06:16:36.725Z,34.30
2023-04-26T06:17:36.710Z,34.10
2023-04-26T06:18:36.650Z,34.06
2023-04-26T06:19:36.670Z,33.83
2023-04-26T06:20:36.651Z,33.59
2023-04-26T06:21:36.638Z,33.64
2023-04-26T06:22:36.630Z,33.68
2023-04-26T06:23:36.647Z,33.50
2023-04-26T06:24:36.630Z,33.42
2023-04-26T06:25:37.103Z,33.34
2023-04-26T06:26:36.604Z,33.30
2023-04-26T06:27:36.567Z,33.13
2023-04-26T06:28:36.619Z,33.13
2023-04-26T06:29:36.618Z,32.86
2023-04-26T06:30:36.621Z,33.17
2023-04-26T06:31:36.579Z,33.02
2023-04-26T06:32:36.593Z,32.98
2023-04-26T06:33:36.566Z,33.18
2023-04-26T06:34:36.556Z,33.16
2023-04-26T06:35:36.575Z,33.07
2023-04-26T06:36:36.901Z,33.21
2023-04-26T06:37:36.544Z,33.27
2023-04-26T06:38:36.537Z,33.10
2023-04-26T06:39:36.554Z,33.15
2023-04-26T06:40:36.603Z,33.09
2023-04-26T06:41:36.617Z,33.02
2023-04-26T06:42:36.641Z,33.30
2023-04-26T06:43:36.626Z,33.02
2023-04-26T06:44:36.618Z,33.07
2023-04-26T06:45:36.698Z,33.07
2023-04-26T06:46:36.734Z,33.25
2023-04-26T06:47:36.794Z,33.03
2023-04-26T06:48:36.769Z,32.86
2023-04-26T06:49:36.832Z,32.91
2023-04-26T06:50:36.825Z,32.86
2023-04-26T06:51:37.022Z,32.86
2023-04-26T06:52:36.951Z,33.15
2023-04-26T06:53:36.962Z,33.07
2023-04-26T06:54:46.059Z,32.83
2023-04-26T06:55:38.095Z,32.72
2023-04-26T06:56:36.970Z,32.73
2023-04-26T06:57:36.955Z,32.49
2023-04-26T06:58:36.934Z,32.53
2023-04-26T06:59:36.915Z,32.51
2023-04-26T07:00:37.093Z,32.66
2023-04-26T07:01:36.972Z,32.41
2023-04-26T07:02:36.954Z,32.23
2023-04-26T07:03:37.739Z,31.86
2023-04-26T07:04:37.217Z,31.70
2023-04-26T07:05:37.078Z,31.35
2023-04-26T07:06:36.875Z,31.38
2023-04-26T07:07:37.596Z,31.16
2023-04-26T07:08:36.952Z,31.00
2023-04-26T07:09:37.063Z,30.93
2023-04-26T07:10:38.082Z,30.82
2023-04-26T07:11:37.121Z,30.56
2023-04-26T07:12:37.182Z,30.52
2023-04-26T07:13:38.483Z,30.45
2023-04-26T07:14:39.461Z,30.40
2023-04-26T07:15:37.343Z,30.13
2023-04-26T07:16:37.492Z,30.07
2023-04-26T07:17:37.473Z,29.87
2023-04-26T07:18:37.481Z,29.83
2023-04-26T07:19:37.577Z,29.87
2023-04-26T07:20:37.595Z,29.85
2023-04-26T07:21:37.608Z,29.86
2023-04-26T07:22:37.612Z,29.95
2023-04-26T07:23:37.682Z,30.00
2023-04-26T07:24:37.719Z,30.07
2023-04-26T07:25:38.120Z,30.33
2023-04-26T07:26:37.895Z,29.95
2023-04-26T07:27:37.914Z,30.04
2023-04-26T07:28:37.984Z,29.91
2023-04-26T07:29:38.056Z,29.86
2023-04-26T07:30:38.085Z,29.83
2023-04-26T07:31:38.140Z,30.07
2023-04-26T07:32:38.327Z,29.94
2023-04-26T07:33:38.540Z,30.11
2023-04-26T07:34:38.319Z,30.08
2023-04-26T07:35:38.733Z,30.02
2023-04-26T07:36:38.409Z,30.12
2023-04-26T07:37:38.482Z,29.87
2023-04-26T07:38:38.493Z,29.98
2023-04-26T07:39:38.557Z,29.97
2023-04-26T07:40:38.565Z,29.86
2023-04-26T07:41:38.622Z,29.78
2023-04-26T07:42:38.576Z,29.66
2023-04-26T07:43:38.651Z,29.83
2023-04-26T07:44:38.636Z,29.89
2023-04-26T07:45:38.761Z,30.47
2023-04-26T07:46:38.694Z,29.74
2023-04-26T07:47:38.729Z,29.75
2023-04-26T07:48:38.757Z,29.96
2023-04-26T07:49:38.790Z,29.82
2023-04-26T07:50:38.824Z,29.88
2023-04-26T07:51:38.858Z,30.39
2023-04-26T07:52:38.914Z,30.36
2023-04-26T07:53:38.945Z,30.48
2023-04-26T07:54:39.009Z,30.33
2023-04-26T07:55:39.022Z,30.80
2023-04-26T07:56:39.069Z,30.91
2023-04-26T07:57:39.089Z,30.74
2023-04-26T07:58:39.323Z,30.59
2023-04-26T07:59:39.184Z,30.75
2023-04-26T08:00:39.180Z,30.95
2023-04-26T08:01:39.285Z,30.63
2023-04-26T08:02:45.152Z,30.62
2023-04-26T08:03:40.562Z,30.48
2023-04-26T08:04:39.342Z,30.46
2023-04-26T08:05:39.920Z,30.38
2023-04-26T08:06:39.217Z,30.44
2023-04-26T08:07:39.216Z,30.50
2023-04-26T08:08:39.163Z,30.58
2023-04-26T08:09:39.161Z,30.35
2023-04-26T08:10:39.619Z,30.63
2023-04-26T08:11:39.202Z,31.67
2023-04-26T08:12:39.177Z,30.60
2023-04-26T08:13:39.158Z,30.43
2023-04-26T08:14:39.167Z,30.81
2023-04-26T08:15:39.128Z,30.73
2023-04-26T08:16:39.123Z,30.59
2023-04-26T08:17:39.293Z,30.55
2023-04-26T08:18:39.181Z,30.40
2023-04-26T08:19:39.130Z,30.35
2023-04-26T08:20:39.125Z,30.17
2023-04-26T08:21:39.119Z,30.31
2023-04-26T08:22:39.108Z,30.39
2023-04-26T08:23:39.157Z,30.28
2023-04-26T08:24:39.060Z,30.26
2023-04-26T08:25:39.120Z,30.29
2023-04-26T08:26:39.124Z,30.35
2023-04-26T08:27:39.079Z,30.39
2023-04-26T08:28:39.085Z,30.39
2023-04-26T08:29:39.097Z,30.59
2023-04-26T08:30:39.069Z,30.45
2023-04-26T08:31:39.071Z,30.48
2023-04-26T08:32:39.093Z,30.64
2023-04-26T08:33:39.077Z,30.46
2023-04-26T08:34:39.073Z,30.47
2023-04-26T08:35:39.137Z,30.26
2023-04-26T08:36:39.149Z,30.49
2023-04-26T08:37:39.198Z,30.35
2023-04-26T08:38:39.212Z,30.56
2023-04-26T08:39:39.297Z,30.72
2023-04-26T08:40:39.633Z,30.24
2023-04-26T08:41:39.343Z,29.44
2023-04-26T08:42:39.294Z,28.87
2023-04-26T08:43:39.574Z,28.28
2023-04-26T08:44:39.374Z,28.44
2023-04-26T08:45:39.363Z,28.50
2023-04-26T08:46:39.334Z,27.66
2023-04-26T08:47:39.400Z,27.24
2023-04-26T08:48:39.396Z,27.41
2023-04-26T08:49:39.437Z,27.15
2023-04-26T08:50:39.646Z,26.95
2023-04-26T08:51:39.450Z,26.99
2023-04-26T08:52:39.462Z,27.17
2023-04-26T08:53:39.521Z,26.82
2023-04-26T08:54:39.540Z,26.69
2023-04-26T08:55:39.574Z,26.75
2023-04-26T08:56:39.642Z,26.87
2023-04-26T08:57:39.644Z,26.45
2023-04-26T08:58:39.652Z,26.24
2023-04-26T08:59:39.818Z,26.08
2023-04-26T09:00:39.771Z,26.01
2023-04-26T09:01:39.860Z,25.87
2023-04-26T09:02:40.022Z,25.82
2023-04-26T09:03:40.079Z,25.67
2023-04-26T09:04:40.032Z,25.63
2023-04-26T09:05:40.159Z,25.48
2023-04-26T09:06:39.964Z,25.47
2023-04-26T09:07:40.030Z,25.37
2023-04-26T09:08:40.139Z,25.41
2023-04-26T09:09:40.142Z,25.30
2023-04-26T09:10:40.661Z,25.14
2023-04-26T09:11:40.267Z,25.24
2023-04-26T09:12:40.305Z,25.08
2023-04-26T09:13:41.097Z,24.98
2023-04-26T09:14:40.418Z,24.93
2023-04-26T09:15:40.538Z,24.79
2023-04-26T09:16:40.567Z,24.83
2023-04-26T09:17:40.643Z,24.73
2023-04-26T09:18:40.624Z,24.64
2023-04-26T09:19:40.702Z,24.57
2023-04-26T09:20:40.748Z,24.57
2023-04-26T09:21:40.739Z,24.46
2023-04-26T09:22:40.825Z,24.39
2023-04-26T09:23:40.827Z,24.33
2023-04-26T09:24:40.863Z,24.23
2023-04-26T09:25:40.955Z,24.19
2023-04-26T09:26:40.986Z,24.08
2023-04-26T09:27:41.012Z,24.04
2023-04-26T09:28:41.000Z,23.99
2023-04-26T09:29:40.924Z,23.98
2023-04-26T09:30:41.153Z,23.95
2023-04-26T09:31:41.032Z,23.88
2023-04-26T09:32:41.031Z,23.78
2023-04-26T09:33:40.961Z,23.85
2023-04-26T09:34:40.957Z,23.66
2023-04-26T09:35:41.060Z,23.68
2023-04-26T09:36:41.058Z,23.64
2023-04-26T09:37:54.390Z,23.69
2023-04-26T09:38:42.014Z,23.66
2023-04-26T09:39:41.027Z,23.80
2023-04-26T09:40:41.153Z,23.73
2023-04-26T09:41:40.993Z,23.68
2023-04-26T09:42:40.986Z,23.70
2023-04-26T09:43:41.649Z,23.72
2023-04-26T09:44:40.994Z,23.75
2023-04-26T09:45:41.125Z,23.52
2023-04-26T09:46:41.043Z,23.48
2023-04-26T09:47:41.141Z,23.38
2023-04-26T09:48:40.951Z,23.46
2023-04-26T09:49:40.940Z,23.45
2023-04-26T09:50:40.939Z,23.39
2023-04-26T09:51:40.918Z,23.65
2023-04-26T09:52:40.930Z,23.81
2023-04-26T09:53:40.918Z,24.01
2023-04-26T09:54:40.966Z,24.20
2023-04-26T09:55:41.156Z,24.27
2023-04-26T09:56:40.923Z,24.44
2023-04-26T09:57:40.964Z,24.38
2023-04-26T09:58:41.027Z,24.50
2023-04-26T09:59:41.093Z,24.57
2023-04-26T10:00:41.232Z,24.61
2023-04-26T10:01:41.195Z,24.66
2023-04-26T10:02:41.303Z,24.65
2023-04-26T10:03:41.439Z,24.69
2023-04-26T10:04:41.421Z,24.78
2023-04-26T10:05:41.436Z,25.08
2023-04-26T10:06:41.489Z,25.04
2023-04-26T10:07:41.549Z,25.10
2023-04-26T10:08:41.624Z,25.24
2023-04-26T10:09:41.633Z,25.31
2023-04-26T10:10:41.662Z,25.22
2023-04-26T10:11:41.724Z,25.07
2023-04-26T10:12:41.754Z,24.94
2023-04-26T10:13:41.860Z,24.91
2023-04-26T10:14:41.862Z,24.89
2023-04-26T10:15:41.985Z,25.09
2023-04-26T10:16:41.993Z,25.18
2023-04-26T10:17:42.048Z,25.24
2023-04-26T10:18:42.060Z,25.32
2023-04-26T10:19:42.139Z,25.21
2023-04-26T10:20:42.201Z,25.21
2023-04-26T10:21:42.208Z,25.59
2023-04-26T10:22:42.296Z,25.59
2023-04-26T10:23:42.373Z,25.67
2023-04-26T10:24:42.406Z,25.47
2023-04-26T10:25:42.698Z,25.40
2023-04-26T10:26:42.686Z,25.55
2023-04-26T10:27:42.610Z,25.56
2023-04-26T10:28:42.673Z,25.70
2023-04-26T10:29:42.765Z,25.66
2023-04-26T10:30:43.132Z,25.91
2023-04-26T10:31:42.994Z,26.04
2023-04-26T10:32:42.919Z,25.90
2023-04-26T10:33:42.952Z,25.92
2023-04-26T10:34:43.033Z,25.69
2023-04-26T10:35:43.107Z,25.98
2023-04-26T10:36:43.705Z,25.78
2023-04-26T10:37:43.236Z,25.83
2023-04-26T10:38:43.230Z,27.07
2023-04-26T10:39:43.317Z,26.46
2023-04-26T10:40:43.413Z,26.42
2023-04-26T10:41:43.665Z,26.10
2023-04-26T10:42:43.486Z,26.19
2023-04-26T10:43:43.544Z,25.84
2023-04-26T10:44:43.585Z,25.93
2023-04-26T10:45:43.702Z,25.74
2023-04-26T10:46:44.177Z,24.94
2023-04-26T10:47:43.805Z,24.70
2023-04-26T10:48:43.708Z,24.62
2023-04-26T10:49:43.720Z,24.51
2023-04-26T10:50:43.723Z,24.48
2023-04-26T10:51:43.734Z,24.56
2023-04-26T10:52:43.696Z,24.40
2023-04-26T10:53:43.695Z,24.25
2023-04-26T10:54:43.721Z,24.29
2023-04-26T10:55:43.840Z,24.13
2023-04-26T10:56:44.183Z,24.09
2023-04-26T10:57:43.780Z,24.10
2023-04-26T10:58:43.795Z,24.28
2023-04-26T10:59:54.324Z,23.96
2023-04-26T11:00:44.828Z,24.07
2023-04-26T11:01:44.248Z,23.82
2023-04-26T11:02:43.834Z,23.76
2023-04-26T11:03:43.999Z,23.76
2023-04-26T11:04:43.844Z,23.59
2023-04-26T11:05:43.783Z,23.48
2023-04-26T11:06:44.674Z,23.53
2023-04-26T11:07:43.769Z,23.38
2023-04-26T11:08:43.749Z,23.32
2023-04-26T11:09:43.779Z,23.19
2023-04-26T11:10:43.713Z,23.17
2023-04-26T11:11:44.184Z,23.16
2023-04-26T11:12:43.732Z,22.99
2023-04-26T11:13:43.701Z,23.29
2023-04-26T11:14:43.700Z,22.99
2023-04-26T11:15:43.751Z,22.90
2023-04-26T11:16:44.260Z,22.96
2023-04-26T11:17:43.715Z,22.87
2023-04-26T11:18:43.676Z,22.85
2023-04-26T11:19:43.681Z,22.79
2023-04-26T11:20:43.708Z,22.70
2023-04-26T11:21:44.270Z,22.68
2023-04-26T11:22:44.680Z,22.67
2023-04-26T11:23:43.851Z,22.71
2023-04-26T11:24:43.862Z,22.43
2023-04-26T11:25:43.926Z,22.40
2023-04-26T11:26:44.182Z,22.37
2023-04-26T11:27:43.993Z,22.33
2023-04-26T11:28:44.054Z,22.35
2023-04-26T11:29:44.108Z,22.27
2023-04-26T11:30:44.168Z,22.38
2023-04-26T11:31:44.228Z,22.19
2023-04-26T11:32:44.279Z,22.16
2023-04-26T11:33:44.288Z,22.11
2023-04-26T11:34:44.344Z,22.13
2023-04-26T11:35:44.349Z,22.01
2023-04-26T11:36:44.736Z,21.95
2023-04-26T11:37:44.469Z,22.01
2023-04-26T11:38:44.572Z,21.92
2023-04-26T11:39:44.588Z,21.84
2023-04-26T11:40:44.647Z,21.81
2023-04-26T11:41:45.224Z,21.83
2023-04-26T11:42:44.764Z,21.73
2023-04-26T11:43:44.795Z,21.70
2023-04-26T11:44:45.761Z,21.68
2023-04-26T11:45:44.898Z,21.60
2023-04-26T11:46:45.269Z,21.59
2023-04-26T11:47:45.082Z,21.49
2023-04-26T11:48:45.026Z,21.52
2023-04-26T11:49:45.688Z,21.49
2023-04-26T11:50:45.171Z,21.37
2023-04-26T11:51:45.196Z,21.28
2023-04-26T11:52:45.294Z,21.28
2023-04-26T11:53:45.321Z,21.22
2023-04-26T11:54:45.421Z,21.24
2023-04-26T11:55:45.420Z,21.22
2023-04-26T11:56:45.467Z,21.19
2023-04-26T11:57:45.533Z,21.21
2023-04-26T11:58:45.594Z,21.15
2023-04-26T11:59:45.618Z,21.10
2023-04-26T12:00:45.705Z,21.13
2023-04-26T12:01:45.809Z,21.12
2023-04-26T12:02:45.945Z,21.08
2023-04-26T12:03:46.008Z,21.09
2023-04-26T12:04:46.083Z,21.03
2023-04-26T12:05:45.940Z,21.00
2023-04-26T12:06:46.051Z,20.97
2023-04-26T12:07:46.119Z,21.04
2023-04-26T12:08:46.165Z,21.00
2023-04-26T12:09:46.170Z,21.01
2023-04-26T12:10:46.237Z,21.03
2023-04-26T12:11:46.690Z,21.00
2023-04-26T12:12:46.359Z,20.97
2023-04-26T12:13:46.504Z,21.06
2023-04-26T12:14:46.481Z,21.03
2023-04-26T12:15:46.593Z,20.98
2023-04-26T12:16:46.821Z,21.04
2023-04-26T12:17:46.725Z,21.09
2023-04-26T12:18:46.748Z,21.08
2023-04-26T12:19:46.811Z,21.01
2023-04-26T12:20:46.865Z,21.10
2023-04-26T12:21:46.926Z,21.08
2023-04-26T12:22:46.987Z,21.01
2023-04-26T12:23:46.977Z,21.01
2023-04-26T12:24:47.045Z,20.93
2023-04-26T12:25:47.111Z,20.96
2023-04-26T12:26:47.179Z,21.04
2023-04-26T12:27:47.215Z,21.07
2023-04-26T12:28:47.236Z,20.93
2023-04-26T12:29:47.256Z,21.01
2023-04-26T12:30:47.318Z,20.92
2023-04-26T12:31:47.776Z,20.95
2023-04-26T12:32:47.370Z,20.86
2023-04-26T12:33:47.424Z,20.86
2023-04-26T12:34:47.484Z,20.80
2023-04-26T12:35:47.483Z,20.87
2023-04-26T12:36:47.683Z,20.78
2023-04-26T12:37:47.592Z,20.74
2023-04-26T12:38:47.669Z,20.72
2023-04-26T12:39:47.664Z,20.69
2023-04-26T12:40:47.726Z,20.66
2023-04-26T12:41:48.221Z,20.59
2023-04-26T12:42:47.831Z,20.60
2023-04-26T12:43:47.839Z,20.60
2023-04-26T12:44:47.882Z,20.60
2023-04-26T12:45:47.930Z,20.61
2023-04-26T12:46:48.052Z,20.61
2023-04-26T12:47:47.970Z,20.63
2023-04-26T12:48:47.993Z,20.60
2023-04-26T12:49:48.010Z,20.54
2023-04-26T12:50:48.041Z,20.48
2023-04-26T12:51:48.263Z,20.54
2023-04-26T12:52:48.105Z,20.54